createdAt,value
2022-12-31T00:01:27.269Z,6.80
2022-12-31T00:03:55.094Z,6.03
2022-12-31T00:06:34.621Z,6.05
2022-12-31T00:09:04.928Z,5.85
2022-12-31T00:11:32.026Z,5.90
2022-12-31T00:13:58.867Z,6.03
2022-12-31T00:16:37.739Z,5.70
2022-12-31T00:19:09.665Z,5.80
2022-12-31T00:21:36.880Z,5.18
2022-12-31T00:24:04.570Z,5.15
2022-12-31T00:26:33.073Z,4.75
2022-12-31T00:29:00.497Z,4.68
2022-12-31T00:33:54.771Z,4.93
2022-12-31T00:36:25.389Z,4.35
2022-12-31T00:38:53.655Z,3.58
2022-12-31T00:41:21.893Z,2.97
2022-12-31T00:43:49.104Z,2.15
2022-12-31T00:46:16.372Z,1.88
2022-12-31T00:48:43.382Z,2.63
2022-12-31T00:51:12.246Z,2.80
2022-12-31T00:53:39.080Z,3.28
2022-12-31T00:56:12.039Z,3.67
2022-12-31T00:58:38.733Z,3.63
2022-12-31T01:01:13.422Z,4.05
2022-12-31T01:03:39.944Z,4.15
2022-12-31T01:06:06.858Z,3.90
2022-12-31T01:08:33.487Z,3.03
2022-12-31T01:11:19.026Z,2.97
2022-12-31T01:13:49.795Z,3.00
2022-12-31T01:16:17.637Z,3.97
2022-12-31T01:18:44.045Z,3.42
2022-12-31T01:21:12.496Z,5.43
2022-12-31T01:23:39.559Z,3.47
2022-12-31T01:26:08.169Z,3.00
2022-12-31T01:28:35.167Z,1.90
2022-12-31T01:31:06.745Z,1.58
2022-12-31T01:33:33.855Z,1.65
2022-12-31T01:36:04.943Z,1.20
2022-12-31T01:38:31.476Z,1.27
2022-12-31T01:40:57.884Z,1.00
2022-12-31T01:43:24.361Z,1.25
2022-12-31T01:45:54.300Z,1.30
2022-12-31T01:48:26.291Z,1.10
2022-12-31T01:50:54.857Z,1.10
2022-12-31T01:53:22.073Z,0.95
2022-12-31T01:55:52.884Z,1.10
2022-12-31T01:58:27.489Z,0.90
2022-12-31T02:00:54.967Z,1.02
2022-12-31T02:03:23.882Z,1.00
2022-12-31T02:06:10.861Z,1.00
2022-12-31T02:08:41.997Z,1.23
2022-12-31T02:11:28.826Z,1.00
2022-12-31T02:14:00.414Z,1.23
2022-12-31T02:16:44.378Z,0.95
2022-12-31T02:19:41.146Z,1.00
2022-12-31T02:22:10.602Z,1.10
2022-12-31T02:25:10.786Z,1.13
2022-12-31T02:28:07.847Z,1.48
2022-12-31T02:30:34.697Z,1.33
2022-12-31T02:33:35.172Z,1.80
2022-12-31T02:36:25.356Z,1.83
2022-12-31T02:38:52.822Z,1.90
2022-12-31T02:41:39.177Z,2.33
2022-12-31T02:44:28.793Z,2.33
2022-12-31T02:47:08.701Z,2.30
2022-12-31T02:49:50.335Z,2.22
2022-12-31T02:52:23.656Z,2.70
2022-12-31T02:55:08.007Z,3.08
2022-12-31T02:57:47.047Z,3.20
2022-12-31T03:00:34.986Z,2.83
2022-12-31T03:03:03.509Z,3.28
2022-12-31T03:05:33.521Z,3.67
2022-12-31T03:07:59.976Z,3.42
2022-12-31T03:10:26.458Z,3.83
2022-12-31T03:12:53.292Z,3.40
2022-12-31T03:15:21.722Z,4.28
2022-12-31T03:17:59.124Z,4.22
2022-12-31T03:20:53.228Z,4.53
2022-12-31T03:23:35.731Z,4.68
2022-12-31T03:26:03.992Z,3.92
2022-12-31T03:28:30.711Z,4.38
2022-12-31T03:31:02.677Z,5.03
2022-12-31T03:33:34.586Z,4.32
2022-12-31T03:36:05.089Z,4.38
2022-12-31T03:38:31.455Z,4.18
2022-12-31T03:40:57.924Z,5.00
2022-12-31T03:43:24.364Z,4.57
2022-12-31T03:45:52.498Z,4.07
2022-12-31T03:48:20.362Z,3.97
2022-12-31T03:50:46.910Z,4.15
2022-12-31T03:53:13.834Z,4.13
2022-12-31T03:55:40.294Z,4.43
2022-12-31T03:58:06.799Z,4.40
2022-12-31T04:00:33.434Z,3.90
2022-12-31T04:03:00.183Z,4.47
2022-12-31T04:05:26.710Z,4.10
2022-12-31T04:07:53.213Z,3.83
2022-12-31T04:10:20.346Z,3.67
2022-12-31T04:12:46.922Z,4.05
2022-12-31T04:15:19.510Z,4.53
2022-12-31T04:17:46.299Z,3.65
2022-12-31T04:20:12.732Z,4.55
2022-12-31T04:22:39.262Z,4.07
2022-12-31T04:25:11.181Z,4.23
2022-12-31T04:27:43.572Z,4.70
2022-12-31T04:30:12.015Z,5.18
2022-12-31T04:32:38.409Z,4.90
2022-12-31T04:35:05.506Z,4.55
2022-12-31T04:37:32.004Z,5.18
2022-12-31T04:40:03.684Z,4.50
2022-12-31T04:42:32.452Z,4.85
2022-12-31T04:44:58.869Z,4.95
2022-12-31T04:47:25.296Z,4.60
2022-12-31T04:49:51.774Z,4.88
2022-12-31T04:52:18.188Z,4.87
2022-12-31T04:54:44.569Z,5.50
2022-12-31T04:57:11.103Z,5.18
2022-12-31T04:59:37.517Z,5.38
2022-12-31T05:02:04.115Z,6.05
2022-12-31T05:04:30.796Z,5.32
2022-12-31T05:06:58.245Z,5.93
2022-12-31T05:09:27.572Z,5.50
2022-12-31T05:11:54.206Z,5.32
2022-12-31T05:14:20.690Z,6.07
2022-12-31T05:16:47.198Z,5.13
2022-12-31T05:19:13.687Z,5.87
2022-12-31T05:21:40.111Z,5.57
2022-12-31T05:24:07.006Z,5.65
2022-12-31T05:26:33.479Z,5.18
2022-12-31T05:29:00.558Z,5.03
2022-12-31T05:33:53.994Z,4.95
2022-12-31T05:36:20.494Z,4.83
2022-12-31T05:38:46.980Z,4.33
2022-12-31T05:41:13.398Z,4.50
2022-12-31T05:43:39.894Z,4.50
2022-12-31T05:46:06.373Z,4.07
2022-12-31T05:48:32.887Z,3.97
2022-12-31T05:50:59.417Z,3.83
2022-12-31T05:53:25.830Z,3.47
2022-12-31T05:55:52.382Z,3.40
2022-12-31T05:58:18.898Z,3.07
2022-12-31T06:00:46.071Z,2.83
2022-12-31T06:03:13.324Z,2.67
2022-12-31T06:08:07.244Z,1.90
2022-12-31T06:10:33.689Z,2.20
2022-12-31T06:13:00.146Z,2.10
2022-12-31T06:15:26.596Z,1.83
2022-12-31T06:17:53.094Z,1.55
2022-12-31T06:20:19.544Z,1.47
2022-12-31T06:22:46.017Z,1.30
2022-12-31T06:25:12.525Z,1.23
2022-12-31T06:27:38.912Z,1.17
2022-12-31T06:30:06.111Z,1.10
2022-12-31T06:32:32.706Z,1.20
2022-12-31T06:34:59.190Z,1.70
2022-12-31T06:37:25.550Z,1.10
2022-12-31T06:39:51.935Z,0.98
2022-12-31T06:42:18.371Z,1.08
2022-12-31T06:44:44.884Z,0.90
2022-12-31T06:47:11.368Z,1.00
2022-12-31T06:49:37.881Z,1.00
2022-12-31T06:52:04.468Z,0.90
2022-12-31T06:54:31.031Z,1.05
2022-12-31T06:56:57.868Z,1.10
2022-12-31T06:59:27.860Z,1.17
2022-12-31T07:02:06.596Z,1.10
2022-12-31T07:04:42.201Z,1.00
2022-12-31T07:07:19.732Z,0.77
2022-12-31T07:10:04.457Z,0.90
2022-12-31T07:12:49.137Z,1.05
2022-12-31T07:15:47.453Z,1.40
2022-12-31T07:18:32.644Z,1.40
2022-12-31T07:20:59.377Z,1.30
2022-12-31T07:23:26.120Z,1.20
2022-12-31T07:26:03.549Z,0.77
2022-12-31T07:28:54.511Z,1.02
2022-12-31T07:31:34.012Z,1.13
2022-12-31T07:34:09.836Z,1.20
2022-12-31T07:36:39.305Z,1.10
2022-12-31T07:39:28.267Z,1.30
2022-12-31T07:42:21.611Z,1.48
2022-12-31T07:44:56.231Z,1.92
2022-12-31T07:47:25.519Z,1.40
2022-12-31T07:49:53.040Z,1.50
2022-12-31T07:52:20.404Z,1.63
2022-12-31T07:57:15.504Z,1.70
2022-12-31T07:59:52.727Z,1.85
2022-12-31T08:02:55.039Z,1.67
2022-12-31T08:05:30.603Z,1.80
2022-12-31T08:08:08.990Z,2.03
2022-12-31T08:11:00.536Z,1.90
2022-12-31T08:13:27.466Z,1.83
2022-12-31T08:15:54.311Z,1.92
2022-12-31T08:18:20.998Z,1.92
2022-12-31T08:21:14.795Z,9.05
2022-12-31T08:24:00.689Z,2.50
2022-12-31T08:26:50.953Z,3.80
2022-12-31T08:29:38.056Z,3.47
2022-12-31T08:32:12.441Z,2.05
2022-12-31T08:34:45.093Z,1.75
2022-12-31T08:37:30.265Z,1.55
2022-12-31T08:40:27.270Z,0.90
2022-12-31T08:43:09.078Z,0.95
2022-12-31T08:45:46.540Z,1.00
2022-12-31T08:48:26.858Z,1.40
2022-12-31T08:50:54.333Z,1.00
2022-12-31T08:53:21.073Z,0.88
2022-12-31T08:56:52.365Z,1.00
2022-12-31T09:00:26.663Z,1.63
2022-12-31T09:04:05.914Z,0.80
2022-12-31T09:07:39.346Z,0.68
2022-12-31T09:11:23.144Z,0.80
2022-12-31T09:15:06.322Z,1.00
2022-12-31T09:18:38.139Z,0.70
2022-12-31T09:22:03.540Z,0.70
2022-12-31T09:25:29.184Z,0.77
2022-12-31T09:29:22.905Z,0.80
2022-12-31T09:33:00.382Z,0.93
2022-12-31T09:36:39.638Z,1.00
2022-12-31T09:40:31.335Z,0.90
2022-12-31T09:44:26.875Z,1.00
2022-12-31T09:48:25.148Z,1.00
2022-12-31T09:52:01.134Z,1.00
2022-12-31T09:55:44.267Z,0.80
2022-12-31T09:59:36.598Z,1.00
2022-12-31T10:06:38.663Z,1.80
2022-12-31T10:10:32.912Z,1.70
2022-12-31T10:14:12.952Z,1.50
2022-12-31T10:17:53.053Z,1.67
2022-12-31T10:21:55.370Z,1.30
2022-12-31T10:25:39.667Z,1.30
2022-12-31T10:29:23.443Z,1.80
2022-12-31T10:33:18.190Z,1.42
2022-12-31T10:36:50.815Z,1.58
2022-12-31T10:39:33.861Z,3.72
2022-12-31T10:42:21.503Z,4.05
2022-12-31T10:45:03.024Z,1.70
2022-12-31T10:48:00.063Z,1.88
2022-12-31T10:51:08.670Z,3.08
2022-12-31T10:53:41.009Z,1.80
2022-12-31T10:56:45.155Z,1.75
2022-12-31T10:59:20.875Z,2.78
2022-12-31T11:02:18.115Z,1.85
2022-12-31T11:05:15.330Z,1.92
2022-12-31T11:08:03.634Z,1.50
2022-12-31T11:10:55.125Z,1.60
2022-12-31T11:13:59.877Z,1.70
2022-12-31T11:16:45.379Z,4.32
2022-12-31T11:19:39.781Z,1.60
2022-12-31T11:22:30.615Z,4.18
2022-12-31T11:25:17.385Z,1.58
2022-12-31T11:27:56.022Z,1.40
2022-12-31T11:30:32.751Z,1.38
2022-12-31T11:33:25.167Z,1.63
2022-12-31T11:36:28.549Z,1.85
2022-12-31T11:39:13.304Z,2.22
2022-12-31T11:41:46.401Z,1.73
2022-12-31T11:44:30.283Z,1.45
2022-12-31T11:47:02.656Z,1.70
2022-12-31T11:50:02.954Z,1.33
2022-12-31T11:52:47.579Z,1.75
2022-12-31T11:55:42.426Z,1.95
2022-12-31T11:58:16.355Z,1.50
2022-12-31T12:00:53.771Z,1.75
2022-12-31T12:03:20.381Z,1.40
2022-12-31T12:05:46.858Z,1.75
2022-12-31T12:08:14.282Z,1.33
2022-12-31T12:10:52.175Z,1.98
2022-12-31T12:15:57.503Z,1.50
2022-12-31T12:18:28.939Z,1.95
2022-12-31T12:21:06.497Z,1.58
2022-12-31T12:23:32.944Z,3.00
2022-12-31T12:25:59.727Z,1.63
2022-12-31T12:28:30.983Z,1.58
2022-12-31T12:31:06.449Z,1.65
2022-12-31T12:33:43.969Z,2.15
2022-12-31T12:36:13.745Z,1.92
2022-12-31T12:38:40.530Z,1.67
2022-12-31T12:41:19.129Z,1.40
2022-12-31T12:43:45.806Z,2.33
2022-12-31T12:46:32.930Z,1.40
2022-12-31T12:49:00.010Z,1.90
2022-12-31T12:51:49.760Z,1.45
2022-12-31T12:54:31.722Z,1.20
2022-12-31T12:57:12.956Z,2.70
2022-12-31T13:00:01.878Z,1.67
2022-12-31T13:02:50.146Z,1.60
2022-12-31T13:05:42.789Z,1.67
2022-12-31T13:08:46.640Z,1.65
2022-12-31T13:11:21.651Z,1.80
2022-12-31T13:14:10.056Z,1.48
2022-12-31T13:16:54.884Z,2.45
2022-12-31T13:19:50.695Z,1.42
2022-12-31T13:22:17.043Z,1.83
2022-12-31T13:24:54.319Z,1.30
2022-12-31T13:27:39.663Z,1.88
2022-12-31T13:30:36.800Z,1.58
2022-12-31T13:33:23.770Z,2.30
2022-12-31T13:36:03.940Z,2.13
2022-12-31T13:38:51.177Z,1.83
2022-12-31T13:41:29.025Z,2.28
2022-12-31T13:46:52.586Z,1.90
2022-12-31T13:49:25.033Z,1.90
2022-12-31T13:51:58.627Z,1.80
2022-12-31T13:54:25.089Z,1.80
2022-12-31T13:56:52.743Z,1.45
2022-12-31T13:59:26.561Z,1.90
2022-12-31T14:02:01.241Z,2.00
2022-12-31T14:04:32.573Z,1.63
2022-12-31T14:07:08.623Z,1.88
2022-12-31T14:09:36.027Z,1.60
2022-12-31T14:12:08.447Z,1.50
2022-12-31T14:15:03.355Z,1.70
2022-12-31T14:17:51.506Z,2.28
2022-12-31T14:20:46.799Z,1.63
2022-12-31T14:23:25.105Z,1.92
2022-12-31T14:26:03.127Z,3.40
2022-12-31T14:28:44.702Z,4.22
2022-12-31T14:31:21.991Z,15.75
2022-12-31T14:33:57.066Z,4.32
2022-12-31T14:36:47.122Z,2.78
2022-12-31T14:39:25.625Z,6.60
2022-12-31T14:42:03.534Z,3.70
2022-12-31T14:47:06.805Z,1.90
2022-12-31T14:49:51.566Z,2.05
2022-12-31T14:52:24.972Z,2.65
2022-12-31T14:55:11.953Z,2.40
2022-12-31T14:58:09.588Z,2.00
2022-12-31T15:00:30.310Z,2.30
2022-12-31T15:03:22.784Z,1.75
2022-12-31T15:06:04.537Z,2.25
2022-12-31T15:08:54.414Z,1.65
2022-12-31T15:11:31.951Z,1.70
2022-12-31T15:14:07.322Z,2.33
2022-12-31T15:16:55.656Z,1.73
2022-12-31T15:19:40.732Z,2.10
2022-12-31T15:22:31.583Z,2.38
2022-12-31T15:25:00.137Z,1.85
2022-12-31T15:27:34.645Z,2.08
2022-12-31T15:30:02.241Z,2.17
2022-12-31T15:32:48.961Z,2.58
2022-12-31T15:35:21.531Z,2.30
2022-12-31T15:38:18.726Z,1.60
2022-12-31T15:40:50.805Z,3.65
2022-12-31T15:43:27.962Z,6.60
2022-12-31T15:45:56.702Z,3.55
2022-12-31T15:48:43.311Z,2.90
2022-12-31T15:51:18.334Z,2.80
2022-12-31T15:53:52.595Z,3.00
2022-12-31T15:56:30.095Z,2.50
2022-12-31T15:58:59.419Z,5.70
2022-12-31T16:01:32.595Z,3.22
2022-12-31T16:04:02.141Z,3.60
2022-12-31T16:06:31.565Z,3.50
2022-12-31T16:08:58.566Z,3.47
2022-12-31T16:11:25.673Z,3.70
2022-12-31T16:13:54.814Z,2.75
2022-12-31T16:16:28.820Z,2.90
2022-12-31T16:18:56.531Z,2.42
2022-12-31T16:21:35.443Z,2.30
2022-12-31T16:24:25.975Z,3.00
2022-12-31T16:26:56.050Z,2.38
2022-12-31T16:29:23.969Z,2.55
2022-12-31T16:31:53.137Z,2.63
2022-12-31T16:34:25.317Z,2.50
2022-12-31T16:37:00.416Z,2.25
2022-12-31T16:39:33.297Z,2.53
2022-12-31T16:42:17.865Z,2.80
2022-12-31T16:44:45.012Z,3.05
2022-12-31T16:47:38.198Z,2.60
2022-12-31T16:50:14.030Z,2.00
2022-12-31T16:52:43.442Z,1.92
2022-12-31T16:55:18.432Z,2.20
2022-12-31T16:57:49.219Z,2.17
2022-12-31T17:00:18.612Z,2.85
2022-12-31T17:02:51.613Z,8.15
2022-12-31T17:05:22.566Z,2.85
2022-12-31T17:07:49.437Z,2.53
2022-12-31T17:10:24.889Z,2.42
2022-12-31T17:15:45.306Z,8.13
2022-12-31T17:18:21.667Z,4.32
2022-12-31T17:20:51.368Z,4.10
2022-12-31T17:23:31.679Z,2.67
2022-12-31T17:26:01.067Z,4.30
2022-12-31T17:28:38.319Z,6.72
2022-12-31T17:31:35.428Z,5.63
2022-12-31T17:34:12.500Z,2.85
2022-12-31T17:36:41.158Z,2.67
2022-12-31T17:39:17.323Z,3.15
2022-12-31T17:41:49.391Z,4.38
2022-12-31T17:44:26.622Z,3.88
2022-12-31T17:46:53.724Z,2.90
2022-12-31T17:49:27.312Z,2.80
2022-12-31T17:51:53.757Z,4.63
2022-12-31T17:54:20.147Z,2.30
2022-12-31T17:56:47.399Z,2.63
2022-12-31T18:01:51.229Z,2.47
2022-12-31T18:04:19.147Z,4.10
2022-12-31T18:06:45.724Z,3.10
2022-12-31T18:09:12.101Z,4.97
2022-12-31T18:11:40.194Z,3.50
2022-12-31T18:14:07.185Z,2.97
2022-12-31T18:16:33.791Z,2.65
2022-12-31T18:19:01.251Z,2.22
2022-12-31T18:21:32.396Z,2.40
2022-12-31T18:26:27.617Z,2.65
2022-12-31T18:28:54.157Z,2.35
2022-12-31T18:31:30.945Z,2.22
2022-12-31T18:33:58.496Z,2.45
2022-12-31T18:36:25.893Z,2.78
2022-12-31T18:38:53.194Z,2.97
2022-12-31T18:43:49.000Z,2.80
2022-12-31T18:46:18.216Z,2.75
2022-12-31T18:48:44.871Z,2.97
2022-12-31T18:51:16.131Z,3.38
2022-12-31T18:53:42.617Z,4.82
2022-12-31T18:56:12.690Z,2.47
2022-12-31T18:58:39.563Z,2.95
2022-12-31T19:01:09.811Z,2.10
2022-12-31T19:03:36.342Z,2.47
2022-12-31T19:06:02.803Z,2.40
2022-12-31T19:08:29.268Z,2.20
2022-12-31T19:10:55.636Z,3.10
2022-12-31T19:13:23.257Z,2.80
2022-12-31T19:15:52.133Z,1.92
2022-12-31T19:18:19.072Z,2.70
2022-12-31T19:20:45.896Z,2.20
2022-12-31T19:23:18.033Z,2.53
2022-12-31T19:25:46.073Z,2.58
2022-12-31T19:28:17.426Z,2.20
2022-12-31T19:30:43.953Z,2.63
2022-12-31T19:33:10.710Z,2.88
2022-12-31T19:35:37.148Z,3.30
2022-12-31T19:38:03.921Z,16.70
2022-12-31T19:40:30.804Z,2.50
2022-12-31T19:42:57.588Z,7.20
2022-12-31T19:45:26.793Z,2.55
2022-12-31T19:47:54.469Z,11.65
2022-12-31T19:50:25.661Z,4.30
2022-12-31T19:52:55.335Z,4.45
2022-12-31T19:55:23.199Z,2.10
2022-12-31T19:57:49.693Z,2.50
2022-12-31T20:00:18.315Z,2.60
2022-12-31T20:02:46.413Z,3.17
2022-12-31T20:05:14.837Z,3.13
2022-12-31T20:07:41.895Z,2.83
2022-12-31T20:10:08.715Z,3.50
2022-12-31T20:12:39.143Z,2.50
2022-12-31T20:15:10.563Z,2.90
2022-12-31T20:17:37.162Z,2.83
2022-12-31T20:20:05.195Z,2.45
2022-12-31T20:22:31.735Z,2.95
2022-12-31T20:24:58.262Z,2.42
2022-12-31T20:27:24.772Z,2.88
2022-12-31T20:29:51.234Z,2.83
2022-12-31T20:32:17.691Z,2.45
2022-12-31T20:34:44.124Z,2.55
2022-12-31T20:37:10.584Z,2.90
2022-12-31T20:39:37.893Z,2.60
2022-12-31T20:44:31.248Z,2.70
2022-12-31T20:46:57.744Z,3.22
2022-12-31T20:49:52.120Z,3.30
2022-12-31T20:52:10.507Z,2.75
2022-12-31T20:54:37.534Z,2.87
2022-12-31T20:57:04.123Z,2.80
2022-12-31T20:59:30.596Z,2.72
2022-12-31T21:02:20.693Z,2.85
2022-12-31T21:04:45.392Z,3.20
2022-12-31T21:07:12.093Z,3.30
2022-12-31T21:09:38.876Z,2.55
2022-12-31T21:12:24.134Z,3.38
2022-12-31T21:14:50.579Z,3.05
2022-12-31T21:17:16.963Z,2.57
2022-12-31T21:19:43.404Z,3.47
2022-12-31T21:22:09.941Z,3.80
2022-12-31T21:24:36.370Z,3.80
2022-12-31T21:27:02.792Z,3.60
2022-12-31T21:29:34.363Z,4.23
2022-12-31T21:32:01.126Z,3.33
2022-12-31T21:34:27.577Z,3.90
2022-12-31T21:36:54.038Z,2.70
2022-12-31T21:39:20.522Z,3.20
2022-12-31T21:41:52.681Z,3.55
2022-12-31T21:44:24.741Z,4.75
2022-12-31T21:47:34.599Z,3.30
2022-12-31T21:49:44.545Z,3.30
2022-12-31T21:52:27.479Z,3.67
2022-12-31T21:55:14.719Z,3.95
2022-12-31T21:58:15.564Z,3.38
2022-12-31T22:00:46.536Z,3.50
2022-12-31T22:03:24.987Z,3.63
2022-12-31T22:05:59.048Z,3.75
2022-12-31T22:08:26.418Z,3.15
2022-12-31T22:10:53.272Z,3.33
2022-12-31T22:13:20.056Z,3.33
2022-12-31T22:15:48.191Z,2.95
2022-12-31T22:18:16.406Z,3.42
2022-12-31T22:20:42.898Z,4.05
2022-12-31T22:23:09.395Z,4.00
2022-12-31T22:25:37.821Z,3.83
2022-12-31T22:28:36.778Z,4.30
2022-12-31T22:30:52.230Z,3.43
2022-12-31T22:33:19.128Z,3.58
2022-12-31T22:35:56.188Z,3.85
2022-12-31T22:38:22.658Z,3.60
2022-12-31T22:40:49.161Z,3.33
2022-12-31T22:43:15.646Z,3.63
2022-12-31T22:45:42.031Z,2.90
2022-12-31T22:48:08.514Z,4.20
2022-12-31T22:50:34.895Z,4.05
2022-12-31T22:53:01.263Z,2.93
2022-12-31T22:55:28.308Z,3.10
2022-12-31T22:57:54.710Z,2.47
2022-12-31T23:00:42.526Z,2.63
2022-12-31T23:03:08.964Z,3.33
2022-12-31T23:05:35.583Z,8.15
2022-12-31T23:08:07.317Z,9.02
2022-12-31T23:10:57.877Z,6.68
2022-12-31T23:13:49.534Z,8.98
2022-12-31T23:16:35.911Z,8.48
2022-12-31T23:19:20.929Z,4.32
2022-12-31T23:22:05.691Z,8.15
2022-12-31T23:24:32.157Z,6.13
2022-12-31T23:26:58.662Z,8.48
2022-12-31T23:29:26.015Z,5.70
2022-12-31T23:31:53.234Z,5.28
2022-12-31T23:36:46.331Z,9.70
2022-12-31T23:39:13.525Z,7.60
2022-12-31T23:44:07.117Z,7.30
2022-12-31T23:46:33.637Z,6.85
2022-12-31T23:49:00.180Z,6.93
2022-12-31T23:51:26.589Z,5.82
2022-12-31T23:53:53.045Z,6.13
2022-12-31T23:56:23.593Z,6.85
2022-12-31T23:58:55.568Z,7.55
